createdAt,value
2022-08-11T00:01:10.621Z,6.50
2022-08-11T00:03:45.453Z,6.07
2022-08-11T00:06:15.113Z,6.93
2022-08-11T00:08:44.881Z,6.40
2022-08-11T00:11:13.562Z,6.83
2022-08-11T00:13:45.396Z,5.97
2022-08-11T00:16:15.889Z,6.03
2022-08-11T00:18:48.269Z,6.27
2022-08-11T00:21:17.440Z,7.03
2022-08-11T00:23:48.904Z,6.10
2022-08-11T00:26:17.711Z,6.40
2022-08-11T00:28:45.943Z,6.17
2022-08-11T00:31:24.861Z,6.40
2022-08-11T00:33:55.177Z,6.73
2022-08-11T00:36:28.708Z,7.13
2022-08-11T00:39:05.930Z,6.37
2022-08-11T00:41:39.243Z,6.50
2022-08-11T00:44:34.265Z,6.97
2022-08-11T00:47:15.912Z,5.80
2022-08-11T00:49:56.438Z,7.10
2022-08-11T00:52:38.349Z,6.00
2022-08-11T00:55:40.568Z,6.47
2022-08-11T00:58:40.839Z,6.20
2022-08-11T01:01:25.401Z,6.40
2022-08-11T01:04:17.039Z,6.57
2022-08-11T01:07:09.368Z,6.70
2022-08-11T01:10:05.074Z,6.13
2022-08-11T01:12:50.844Z,6.73
2022-08-11T01:15:55.845Z,7.20
2022-08-11T01:18:54.590Z,6.40
2022-08-11T01:22:05.270Z,6.93
2022-08-11T01:25:01.886Z,6.40
2022-08-11T01:27:51.861Z,7.70
2022-08-11T01:30:57.503Z,6.73
2022-08-11T01:34:09.559Z,6.70
2022-08-11T01:37:07.770Z,6.53
2022-08-11T01:40:16.287Z,7.10
2022-08-11T01:43:58.861Z,7.30
2022-08-11T01:46:32.556Z,6.80
2022-08-11T01:50:06.590Z,6.90
2022-08-11T01:52:20.392Z,6.40
2022-08-11T01:55:15.706Z,6.80
2022-08-11T01:57:51.743Z,7.30
2022-08-11T02:00:22.097Z,6.87
2022-08-11T02:03:00.067Z,8.03
2022-08-11T02:05:45.881Z,6.70
2022-08-11T02:08:32.911Z,6.57
2022-08-11T02:11:35.614Z,6.73
2022-08-11T02:14:22.598Z,7.00
2022-08-11T02:17:12.374Z,7.33
2022-08-11T02:20:10.965Z,6.30
2022-08-11T02:23:08.027Z,6.90
2022-08-11T02:25:45.203Z,7.53
2022-08-11T02:28:23.833Z,7.77
2022-08-11T02:31:15.520Z,7.33
2022-08-11T02:34:15.960Z,7.20
2022-08-11T02:36:53.762Z,6.70
2022-08-11T02:39:25.428Z,7.40
2022-08-11T02:42:32.665Z,7.57
2022-08-11T02:45:38.704Z,7.87
2022-08-11T02:48:39.233Z,7.53
2022-08-11T02:51:21.347Z,8.00
2022-08-11T02:53:58.648Z,8.43
2022-08-11T02:56:38.556Z,7.93
2022-08-11T02:59:33.823Z,7.63
2022-08-11T03:02:11.982Z,7.17
2022-08-11T03:04:52.233Z,8.43
2022-08-11T03:07:28.922Z,7.57
2022-08-11T03:10:07.026Z,7.93
2022-08-11T03:13:03.930Z,8.10
2022-08-11T03:16:00.983Z,8.23
2022-08-11T03:18:35.634Z,8.20
2022-08-11T03:21:11.321Z,7.70
2022-08-11T03:23:49.640Z,7.40
2022-08-11T03:26:32.974Z,6.57
2022-08-11T03:29:09.928Z,7.20
2022-08-11T03:31:48.154Z,8.00
2022-08-11T03:34:18.456Z,8.43
2022-08-11T03:37:36.997Z,8.47
2022-08-11T03:40:17.153Z,8.43
2022-08-11T03:42:54.662Z,8.70
2022-08-11T03:45:29.510Z,8.17
2022-08-11T03:48:11.538Z,8.37
2022-08-11T03:50:59.129Z,8.53
2022-08-11T03:53:46.253Z,8.20
2022-08-11T03:56:45.540Z,8.70
2022-08-11T03:59:56.518Z,7.90
2022-08-11T04:03:02.429Z,8.13
2022-08-11T04:06:07.332Z,9.57
2022-08-11T04:09:03.387Z,8.40
2022-08-11T04:12:05.354Z,9.10
2022-08-11T04:15:26.687Z,8.87
2022-08-11T04:18:21.985Z,8.23
2022-08-11T04:21:25.059Z,8.07
2022-08-11T04:24:34.607Z,8.40
2022-08-11T04:27:35.360Z,9.73
2022-08-11T04:30:13.178Z,9.00
2022-08-11T04:33:04.843Z,9.80
2022-08-11T04:35:50.365Z,9.90
2022-08-11T04:38:59.444Z,13.90
2022-08-11T04:42:18.830Z,10.63
2022-08-11T04:45:34.203Z,10.70
2022-08-11T04:48:38.402Z,10.93
2022-08-11T04:52:03.243Z,10.50
2022-08-11T04:55:13.186Z,11.00
2022-08-11T04:58:09.825Z,11.33
2022-08-11T05:01:04.791Z,11.13
2022-08-11T05:04:29.451Z,12.40
2022-08-11T05:07:30.634Z,11.83
2022-08-11T05:10:14.173Z,12.50
2022-08-11T05:12:47.494Z,11.90
2022-08-11T05:15:43.026Z,10.70
2022-08-11T05:18:34.876Z,11.30
2022-08-11T05:21:26.040Z,12.23
2022-08-11T05:24:17.098Z,11.77
2022-08-11T05:27:13.412Z,11.30
2022-08-11T05:30:03.416Z,9.80
2022-08-11T05:32:59.367Z,10.10
2022-08-11T05:36:02.435Z,10.50
2022-08-11T05:38:45.178Z,9.03
2022-08-11T05:41:32.658Z,9.27
2022-08-11T05:44:22.758Z,8.17
2022-08-11T05:47:09.068Z,7.37
2022-08-11T05:49:57.855Z,7.83
2022-08-11T05:52:46.975Z,8.97
2022-08-11T05:55:35.181Z,7.97
2022-08-11T05:58:06.677Z,11.00
2022-08-11T06:00:44.520Z,7.30
2022-08-11T06:03:21.480Z,8.40
2022-08-11T06:05:50.818Z,7.97
2022-08-11T06:08:30.947Z,8.27
2022-08-11T06:11:03.567Z,9.50
2022-08-11T06:13:32.572Z,7.77
2022-08-11T06:16:06.793Z,8.57
2022-08-11T06:18:37.806Z,9.00
2022-08-11T06:21:11.222Z,8.67
2022-08-11T06:23:40.590Z,6.93
2022-08-11T06:26:11.039Z,9.40
2022-08-11T06:28:40.800Z,8.33
2022-08-11T06:31:16.357Z,8.63
2022-08-11T06:33:56.985Z,7.07
2022-08-11T06:36:34.271Z,7.93
2022-08-11T06:39:14.409Z,9.30
2022-08-11T06:41:49.533Z,8.13
2022-08-11T06:44:28.668Z,8.00
2022-08-11T06:47:08.931Z,7.80
2022-08-11T06:50:03.419Z,7.20
2022-08-11T06:52:36.095Z,7.90
2022-08-11T06:55:57.979Z,7.13
2022-08-11T06:58:30.572Z,7.67
2022-08-11T07:01:02.029Z,7.43
2022-08-11T07:03:38.111Z,8.83
2022-08-11T07:06:16.937Z,7.60
2022-08-11T07:09:41.044Z,8.77
2022-08-11T07:12:47.192Z,7.73
2022-08-11T07:16:10.869Z,8.47
2022-08-11T07:18:44.764Z,7.87
2022-08-11T07:22:01.923Z,7.37
2022-08-11T07:25:02.038Z,8.30
2022-08-11T07:27:55.625Z,6.90
2022-08-11T07:30:26.254Z,7.23
2022-08-11T07:32:56.996Z,7.73
2022-08-11T07:35:31.408Z,7.40
2022-08-11T07:38:07.234Z,7.83
2022-08-11T07:40:37.135Z,7.90
2022-08-11T07:43:07.074Z,6.90
2022-08-11T07:45:53.434Z,9.07
2022-08-11T07:48:39.990Z,7.20
2022-08-11T07:51:26.111Z,7.37
2022-08-11T07:53:58.803Z,8.97
2022-08-11T07:56:55.522Z,7.30
2022-08-11T08:00:03.656Z,7.53
2022-08-11T08:02:58.509Z,7.70
2022-08-11T08:05:44.595Z,7.23
2022-08-11T08:08:32.808Z,7.33
2022-08-11T08:11:27.168Z,7.43
2022-08-11T08:14:14.674Z,7.57
2022-08-11T08:17:01.374Z,7.37
2022-08-11T08:19:30.448Z,6.30
2022-08-11T08:22:04.338Z,7.40
2022-08-11T08:24:48.457Z,7.60
2022-08-11T08:27:18.674Z,6.67
2022-08-11T08:30:04.759Z,6.70
2022-08-11T08:32:35.131Z,8.00
2022-08-11T08:35:05.720Z,6.77
2022-08-11T08:37:46.009Z,7.20
2022-08-11T08:40:16.037Z,7.07
2022-08-11T08:42:51.495Z,7.20
2022-08-11T08:45:20.471Z,6.10
2022-08-11T08:47:53.724Z,6.17
2022-08-11T08:50:27.728Z,6.20
2022-08-11T08:53:02.023Z,5.90
2022-08-11T08:55:33.746Z,6.50
2022-08-11T08:58:04.085Z,6.60
2022-08-11T09:00:42.141Z,7.93
2022-08-11T09:03:39.004Z,5.93
2022-08-11T09:05:59.438Z,6.53
2022-08-11T09:08:28.490Z,6.27
2022-08-11T09:11:15.922Z,7.90
2022-08-11T09:14:04.837Z,5.67
2022-08-11T09:16:34.204Z,6.30
2022-08-11T09:19:02.780Z,6.80
2022-08-11T09:21:44.520Z,6.57
2022-08-11T09:24:36.155Z,5.60
2022-08-11T09:27:07.742Z,6.40
2022-08-11T09:29:39.177Z,5.40
2022-08-11T09:32:08.831Z,5.87
2022-08-11T09:34:38.396Z,5.47
2022-08-11T09:37:54.172Z,6.07
2022-08-11T09:40:30.454Z,5.93
2022-08-11T09:43:17.292Z,6.30
2022-08-11T09:45:51.840Z,5.60
2022-08-11T09:48:21.134Z,6.13
2022-08-11T09:50:51.984Z,6.53
2022-08-11T09:53:36.827Z,5.30
2022-08-11T09:56:22.346Z,6.63
2022-08-11T09:58:50.990Z,5.60
2022-08-11T10:01:29.475Z,6.73
2022-08-11T10:04:01.604Z,6.17
2022-08-11T10:06:54.477Z,6.47
2022-08-11T10:09:25.481Z,5.93
2022-08-11T10:11:58.479Z,6.53
2022-08-11T10:14:46.317Z,6.23
2022-08-11T10:17:17.890Z,5.77
2022-08-11T10:20:05.364Z,6.20
2022-08-11T10:22:53.498Z,6.03
2022-08-11T10:25:39.874Z,6.23
2022-08-11T10:28:28.433Z,7.33
2022-08-11T10:31:18.848Z,5.97
2022-08-11T10:34:01.617Z,5.70
2022-08-11T10:36:32.225Z,5.83
2022-08-11T10:39:03.491Z,6.53
2022-08-11T10:42:06.089Z,5.47
2022-08-11T10:44:40.049Z,5.27
2022-08-11T10:47:26.672Z,5.80
2022-08-11T10:50:15.456Z,5.83
2022-08-11T10:53:03.315Z,5.60
2022-08-11T10:55:49.617Z,5.30
2022-08-11T10:58:36.828Z,5.20
2022-08-11T11:01:05.767Z,5.50
2022-08-11T11:03:36.624Z,5.17
2022-08-11T11:06:13.282Z,5.20
2022-08-11T11:09:05.270Z,6.20
2022-08-11T11:11:55.925Z,5.57
2022-08-11T11:14:46.204Z,5.50
2022-08-11T11:17:41.902Z,5.23
2022-08-11T11:20:36.545Z,6.90
2022-08-11T11:23:05.781Z,4.90
2022-08-11T11:26:10.912Z,5.00
2022-08-11T11:29:10.463Z,5.50
2022-08-11T11:31:52.338Z,4.87
2022-08-11T11:34:52.742Z,4.70
2022-08-11T11:37:23.728Z,7.10
2022-08-11T11:39:55.223Z,5.10
2022-08-11T11:42:24.155Z,5.97
2022-08-11T11:44:55.773Z,5.20
2022-08-11T11:47:25.151Z,5.30
2022-08-11T11:49:54.370Z,5.30
2022-08-11T11:52:23.386Z,5.07
2022-08-11T11:54:56.567Z,5.60
2022-08-11T11:57:58.605Z,5.60
2022-08-11T12:00:45.573Z,5.30
2022-08-11T12:03:14.471Z,4.97
2022-08-11T12:05:44.748Z,4.70
2022-08-11T12:08:16.899Z,6.00
2022-08-11T12:10:48.649Z,4.83
2022-08-11T12:13:36.642Z,4.83
2022-08-11T12:16:33.833Z,4.73
2022-08-11T12:18:56.597Z,4.53
2022-08-11T12:21:26.083Z,5.27
2022-08-11T12:24:13.693Z,5.60
2022-08-11T12:27:16.492Z,5.87
2022-08-11T12:29:52.784Z,5.07
2022-08-11T12:32:26.826Z,4.17
2022-08-11T12:34:57.799Z,4.60
2022-08-11T12:37:31.375Z,4.83
2022-08-11T12:40:42.801Z,4.53
2022-08-11T12:43:38.028Z,4.70
2022-08-11T12:46:11.120Z,5.87
2022-08-11T12:49:17.412Z,4.63
2022-08-11T12:52:11.804Z,7.77
2022-08-11T12:54:51.799Z,4.67
2022-08-11T12:57:44.456Z,4.87
2022-08-11T13:00:33.186Z,4.83
2022-08-11T13:03:19.294Z,5.00
2022-08-11T13:05:49.590Z,4.40
2022-08-11T13:08:18.796Z,5.20
2022-08-11T13:11:06.270Z,5.13
2022-08-11T13:13:55.743Z,5.17
2022-08-11T13:16:25.265Z,4.00
2022-08-11T13:18:54.272Z,5.10
2022-08-11T13:21:23.911Z,5.47
2022-08-11T13:24:00.349Z,4.57
2022-08-11T13:26:43.619Z,4.37
2022-08-11T13:29:21.124Z,4.60
2022-08-11T13:31:51.918Z,4.80
2022-08-11T13:34:21.613Z,4.80
2022-08-11T13:36:52.836Z,4.53
2022-08-11T13:39:24.225Z,4.73
2022-08-11T13:41:55.716Z,4.70
2022-08-11T13:44:27.064Z,4.60
2022-08-11T13:47:01.267Z,4.80
2022-08-11T13:49:31.535Z,4.90
2022-08-11T13:52:00.613Z,4.27
2022-08-11T13:54:32.465Z,4.60
2022-08-11T13:57:09.255Z,4.13
2022-08-11T13:59:51.815Z,4.63
2022-08-11T14:02:29.990Z,5.03
2022-08-11T14:05:02.587Z,4.67
2022-08-11T14:07:36.347Z,5.10
2022-08-11T14:10:07.187Z,4.47
2022-08-11T14:12:55.587Z,4.60
2022-08-11T14:15:26.184Z,4.90
2022-08-11T14:18:03.400Z,4.60
2022-08-11T14:20:54.042Z,4.23
2022-08-11T14:23:27.542Z,4.73
2022-08-11T14:26:14.499Z,4.40
2022-08-11T14:28:44.953Z,4.70
2022-08-11T14:31:15.503Z,4.77
2022-08-11T14:33:58.606Z,4.77
2022-08-11T14:36:32.666Z,4.27
2022-08-11T14:39:03.119Z,4.33
2022-08-11T14:42:10.115Z,5.20
2022-08-11T14:44:58.159Z,4.43
2022-08-11T14:47:29.035Z,4.40
2022-08-11T14:50:12.298Z,4.57
2022-08-11T14:52:45.889Z,4.47
2022-08-11T14:55:31.668Z,4.40
2022-08-11T14:58:00.686Z,4.77
2022-08-11T15:00:29.245Z,4.47
2022-08-11T15:03:10.982Z,4.77
2022-08-11T15:05:57.019Z,4.53
2022-08-11T15:08:47.310Z,4.80
2022-08-11T15:11:34.613Z,4.60
2022-08-11T15:14:04.104Z,4.63
2022-08-11T15:16:50.932Z,4.70
2022-08-11T15:19:22.003Z,4.67
2022-08-11T15:22:09.611Z,4.40
2022-08-11T15:24:38.351Z,4.37
2022-08-11T15:27:28.359Z,4.63
2022-08-11T15:30:17.588Z,4.47
2022-08-11T15:33:23.035Z,4.57
2022-08-11T15:36:10.847Z,4.77
2022-08-11T15:38:43.776Z,4.40
2022-08-11T15:41:35.727Z,4.27
2022-08-11T15:44:51.194Z,4.30
2022-08-11T15:47:18.646Z,4.50
2022-08-11T15:50:10.926Z,4.87
2022-08-11T15:52:44.740Z,4.40
2022-08-11T15:55:15.233Z,4.37
2022-08-11T15:58:01.837Z,4.50
2022-08-11T16:00:48.466Z,4.80
2022-08-11T16:04:06.815Z,4.30
2022-08-11T16:06:36.412Z,4.87
2022-08-11T16:09:18.037Z,4.00
2022-08-11T16:11:50.305Z,5.77
2022-08-11T16:14:38.610Z,4.83
2022-08-11T16:17:09.253Z,4.50
2022-08-11T16:19:40.910Z,4.30
2022-08-11T16:22:12.768Z,4.60
2022-08-11T16:27:04.890Z,4.53
2022-08-11T16:27:39.729Z,4.87
2022-08-11T16:30:10.294Z,4.67
2022-08-11T16:32:41.476Z,4.63
2022-08-11T16:35:29.899Z,4.50
2022-08-11T16:38:16.385Z,4.00
2022-08-11T16:40:46.048Z,4.73
2022-08-11T16:43:36.173Z,4.53
2022-08-11T16:46:32.572Z,4.83
2022-08-11T16:49:03.064Z,3.70
2022-08-11T16:51:32.621Z,4.20
2022-08-11T16:54:04.543Z,4.90
2022-08-11T16:56:39.763Z,7.43
2022-08-11T16:59:15.198Z,4.67
2022-08-11T17:01:47.321Z,3.67
2022-08-11T17:04:40.443Z,4.13
2022-08-11T17:07:41.594Z,4.37
2022-08-11T17:10:51.044Z,4.27
2022-08-11T17:13:29.095Z,4.03
2022-08-11T17:16:09.082Z,4.03
2022-08-11T17:18:44.161Z,3.63
2022-08-11T17:21:22.527Z,3.70
2022-08-11T17:23:54.996Z,3.60
2022-08-11T17:26:49.488Z,4.10
2022-08-11T17:29:21.455Z,3.80
2022-08-11T17:32:09.704Z,3.90
2022-08-11T17:34:56.378Z,3.83
2022-08-11T17:37:25.599Z,4.03
2022-08-11T17:39:55.922Z,5.73
2022-08-11T17:42:46.061Z,3.50
2022-08-11T17:45:32.557Z,3.57
2022-08-11T17:48:20.215Z,3.93
2022-08-11T17:50:50.304Z,3.57
2022-08-11T17:53:36.901Z,3.40
2022-08-11T17:56:29.801Z,4.00
2022-08-11T17:59:17.212Z,3.60
2022-08-11T18:01:46.964Z,4.10
2022-08-11T18:04:23.494Z,3.63
2022-08-11T18:06:54.624Z,3.73
2022-08-11T18:09:41.594Z,4.43
2022-08-11T18:12:28.419Z,3.53
2022-08-11T18:15:16.475Z,3.87
2022-08-11T18:18:02.550Z,3.57
2022-08-11T18:20:50.129Z,3.70
2022-08-11T18:23:40.722Z,3.90
2022-08-11T18:26:38.068Z,3.43
2022-08-11T18:29:25.920Z,3.70
2022-08-11T18:32:21.799Z,3.77
2022-08-11T18:35:11.114Z,4.50
2022-08-11T18:38:04.390Z,4.27
2022-08-11T18:40:51.385Z,3.63
2022-08-11T18:43:42.417Z,4.20
2022-08-11T18:46:31.706Z,3.97
2022-08-11T18:49:21.144Z,4.10
2022-08-11T18:52:11.331Z,3.67
2022-08-11T18:55:02.501Z,4.37
2022-08-11T18:57:53.985Z,4.63
2022-08-11T19:00:43.862Z,5.30
2022-08-11T19:03:48.404Z,4.30
2022-08-11T19:06:40.243Z,3.97
2022-08-11T19:09:31.521Z,4.23
2022-08-11T19:12:19.974Z,4.47
2022-08-11T19:15:08.378Z,4.10
2022-08-11T19:17:57.230Z,4.47
2022-08-11T19:20:46.264Z,4.40
2022-08-11T19:23:35.737Z,4.83
2022-08-11T19:26:23.340Z,5.80
2022-08-11T19:30:07.590Z,4.00
2022-08-11T19:32:19.231Z,3.87
2022-08-11T19:35:05.597Z,4.50
2022-08-11T19:37:53.121Z,4.53
2022-08-11T19:40:40.432Z,4.30
2022-08-11T19:43:27.658Z,4.20
2022-08-11T19:46:18.881Z,4.63
2022-08-11T19:49:08.293Z,4.50
2022-08-11T19:51:55.361Z,4.93
2022-08-11T19:54:44.470Z,5.53
2022-08-11T19:57:34.665Z,5.83
2022-08-11T20:00:29.985Z,5.60
2022-08-11T20:03:17.656Z,4.87
2022-08-11T20:06:05.720Z,4.30
2022-08-11T20:08:57.703Z,4.70
2022-08-11T20:11:45.672Z,4.63
2022-08-11T20:14:32.476Z,4.60
2022-08-11T20:17:20.617Z,4.67
2022-08-11T20:20:08.984Z,4.40
2022-08-11T20:22:55.744Z,4.17
2022-08-11T20:25:43.015Z,4.07
2022-08-11T20:28:31.947Z,4.30
2022-08-11T20:31:17.726Z,4.40
2022-08-11T20:34:05.492Z,4.53
2022-08-11T20:36:55.064Z,4.23
2022-08-11T20:39:43.244Z,4.23
2022-08-11T20:42:30.952Z,4.37
2022-08-11T20:45:23.922Z,4.40
2022-08-11T20:48:14.842Z,4.60
2022-08-11T20:51:06.291Z,4.57
2022-08-11T20:53:56.448Z,5.17
2022-08-11T20:56:46.103Z,4.60
2022-08-11T20:59:33.332Z,5.93
2022-08-11T21:02:30.301Z,4.80
2022-08-11T21:05:19.507Z,4.77
2022-08-11T21:08:25.686Z,4.97
2022-08-11T21:11:14.085Z,4.83
2022-08-11T21:14:13.857Z,4.80
2022-08-11T21:17:04.439Z,4.97
2022-08-11T21:20:18.381Z,4.60
2022-08-11T21:23:23.999Z,5.00
2022-08-11T21:26:15.737Z,4.90
2022-08-11T21:29:02.666Z,5.23
2022-08-11T21:31:51.171Z,4.87
2022-08-11T21:34:40.547Z,5.63
2022-08-11T21:37:28.820Z,5.20
2022-08-11T21:40:18.595Z,4.93
2022-08-11T21:43:08.487Z,4.80
2022-08-11T21:45:56.964Z,4.67
2022-08-11T21:48:44.790Z,4.63
2022-08-11T21:51:31.274Z,4.60
2022-08-11T21:54:18.646Z,4.50
2022-08-11T21:57:06.226Z,4.87
2022-08-11T22:00:02.571Z,5.10
2022-08-11T22:02:57.281Z,4.90
2022-08-11T22:05:44.219Z,5.07
2022-08-11T22:08:30.609Z,5.30
2022-08-11T22:11:17.087Z,4.40
2022-08-11T22:14:18.648Z,5.03
2022-08-11T22:17:05.683Z,6.40
2022-08-11T22:19:54.553Z,5.80
2022-08-11T22:22:51.931Z,5.17
2022-08-11T22:25:50.800Z,5.30
2022-08-11T22:28:37.618Z,5.00
2022-08-11T22:31:24.337Z,5.20
2022-08-11T22:34:11.552Z,4.77
2022-08-11T22:36:59.363Z,5.03
2022-08-11T22:39:59.562Z,5.10
2022-08-11T22:42:49.499Z,4.93
2022-08-11T22:45:35.216Z,5.80
2022-08-11T22:48:23.121Z,5.00
2022-08-11T22:51:10.578Z,6.00
2022-08-11T22:53:59.090Z,5.10
2022-08-11T22:56:46.483Z,5.27
2022-08-11T22:59:32.799Z,5.77
2022-08-11T23:02:18.668Z,4.97
2022-08-11T23:05:05.816Z,5.97
2022-08-11T23:07:53.973Z,6.23
2022-08-11T23:10:40.503Z,4.47
2022-08-11T23:13:27.517Z,5.50
2022-08-11T23:16:14.343Z,5.63
2022-08-11T23:19:01.163Z,5.10
2022-08-11T23:21:47.786Z,5.43
2022-08-11T23:24:36.218Z,5.50
2022-08-11T23:27:24.263Z,5.60
2022-08-11T23:30:12.827Z,5.83
2022-08-11T23:33:00.864Z,6.00
2022-08-11T23:35:53.669Z,5.73
2022-08-11T23:38:42.292Z,5.87
2022-08-11T23:41:29.362Z,5.73
2022-08-11T23:44:15.607Z,5.40
2022-08-11T23:47:02.520Z,5.43
2022-08-11T23:49:48.849Z,5.70
2022-08-11T23:52:35.833Z,6.50
2022-08-11T23:55:22.303Z,5.67
2022-08-11T23:58:10.192Z,6.27
